Time;durP1;ratioP1;P1;durP2;ratioP2;P2;SDS_P1;SDS_P2;PMS_P1;PMS_P2;Temp;Humidity;BMP_temperature;BMP_pressure;BME280_temperature;BME280_humidity;BME280_pressure;Samples;Min_cycle;Max_cycle;Signal;HPM_P1;HPM_P2
2023/11/01 00:00:11;;;;;;;3.03;2.40;;;;;;;16.11;54.16;93137.06;515472;28;832;-71
2023/11/01 00:00:26;;;;;;;2.90;2.40;;;;;;;16.09;54.06;93140.41;516529;28;1043;-71
2023/11/01 00:00:43;;;;;;;3.53;2.73;;;;;;;16.11;54.15;93143.38;517723;28;804;-71
2023/11/01 00:00:58;;;;;;;4.63;2.97;;;;;;;16.12;54.30;93139.25;517487;28;916;-71
2023/11/01 00:01:14;;;;;;;4.30;2.72;;;;;;;16.14;54.30;93135.84;517510;28;1118;-71
2023/11/01 00:01:29;;;;;;;3.23;2.67;;;;;;;16.14;54.27;93138.63;517665;28;899;-71
2023/11/01 00:01:44;;;;;;;2.92;2.67;;;;;;;16.14;54.19;93136.59;517562;28;821;-70
2023/11/01 00:02:00;;;;;;;3.60;2.60;;;;;;;16.15;54.23;93135.28;516950;28;1583;-71
2023/11/01 00:02:15;;;;;;;3.63;2.42;;;;;;;16.15;54.11;93135.28;517469;28;824;-71
2023/11/01 00:02:32;;;;;;;3.13;2.50;;;;;;;16.17;54.14;93134.69;517931;28;852;-71
2023/11/01 00:02:47;;;;;;;3.78;3.10;;;;;;;16.18;54.09;93138.91;517595;28;1165;-70
2023/11/01 00:03:03;;;;;;;3.23;2.93;;;;;;;16.18;54.37;93138.91;516527;28;860;-70
2023/11/01 00:03:18;;;;;;;3.17;2.60;;;;;;;16.19;54.45;93143.16;517596;28;845;-70
2023/11/01 00:03:33;;;;;;;3.13;2.60;;;;;;;16.19;54.29;93137.59;517919;28;822;-71
2023/11/01 00:03:49;;;;;;;3.30;2.73;;;;;;;16.18;54.32;93136.88;517298;28;1129;-70
2023/11/01 00:04:05;;;;;;;3.28;2.72;;;;;;;16.17;54.06;93138.19;516373;28;1559;-70
2023/11/01 00:04:20;;;;;;;3.47;3.07;;;;;;;16.18;54.12;93127.78;517454;28;1162;-70
2023/11/01 00:04:36;;;;;;;4.40;3.50;;;;;;;16.18;54.20;93136.88;518350;28;1185;-70
2023/11/01 00:04:51;;;;;;;4.17;3.40;;;;;;;16.18;54.08;93136.88;519305;28;832;-70
2023/11/01 00:05:07;;;;;;;3.87;3.47;;;;;;;16.18;54.21;93131.28;517428;28;836;-71
2023/11/01 00:05:22;;;;;;;4.45;3.65;;;;;;;16.18;54.07;93136.88;516498;28;1019;-70
2023/11/01 00:05:38;;;;;;;5.07;3.53;;;;;;;16.18;54.09;93134.06;517533;28;1150;-70
2023/11/01 00:05:53;;;;;;;4.78;3.38;;;;;;;16.18;53.96;93139.66;516888;28;868;-70
2023/11/01 00:06:09;;;;;;;3.93;3.17;;;;;;;16.17;53.98;93140.25;515555;28;868;-70
2023/11/01 00:06:24;;;;;;;3.13;2.83;;;;;;;16.17;53.90;93135.41;515575;28;1741;-70
2023/11/01 00:06:39;;;;;;;3.10;2.80;;;;;;;16.15;53.84;93138.06;517681;28;1109;-70
2023/11/01 00:06:55;;;;;;;3.42;2.92;;;;;;;16.15;53.91;93137.34;517268;28;935;-70
2023/11/01 00:07:10;;;;;;;3.70;2.60;;;;;;;16.14;53.83;93135.84;517581;28;1102;-70
2023/11/01 00:07:26;;;;;;;3.10;2.30;;;;;;;16.11;53.82;93142.63;517691;28;919;-70
2023/11/01 00:07:41;;;;;;;2.35;2.10;;;;;;;15.97;54.02;93139.59;516250;28;1265;-69
2023/11/01 00:07:57;;;;;;;1.90;1.80;;;;;;;15.91;54.25;93133.63;516676;28;832;-69
2023/11/01 00:08:12;;;;;;;2.03;1.88;;;;;;;15.89;54.32;93139.03;517291;28;895;-70
2023/11/01 00:08:27;;;;;;;3.23;2.40;;;;;;;15.89;54.33;93136.25;517518;28;880;-70
2023/11/01 00:08:43;;;;;;;3.73;2.40;;;;;;;15.85;54.41;93139.47;517339;28;1014;-69
2023/11/01 00:08:58;;;;;;;3.25;2.20;;;;;;;15.86;54.45;93145.78;515985;28;887;-70
2023/11/01 00:09:14;;;;;;;2.57;2.10;;;;;;;15.85;54.39;93145.03;515360;28;1567;-70
2023/11/01 00:09:29;;;;;;;2.70;2.25;;;;;;;15.82;54.37;93137.88;517235;28;773;-69
2023/11/01 00:09:44;;;;;;;3.20;2.37;;;;;;;15.80;54.39;93139.81;517373;28;820;-70
2023/11/01 00:10:00;;;;;;;3.23;2.03;;;;;;;15.83;54.42;93147.69;517435;28;757;-70
2023/11/01 00:10:15;;;;;;;3.63;2.33;;;;;;;15.83;54.39;93149.75;516956;28;1085;-71
2023/11/01 00:10:31;;;;;;;3.63;2.60;;;;;;;15.81;54.42;93150.34;517644;28;781;-71
2023/11/01 00:10:46;;;;;;;2.97;2.40;;;;;;;15.83;54.54;93164.41;517367;28;908;-71
2023/11/01 00:11:02;;;;;;;2.50;2.30;;;;;;;15.82;54.34;93156.63;517456;28;805;-71
2023/11/01 00:11:17;;;;;;;2.50;2.30;;;;;;;15.83;54.40;93160.91;517682;28;1034;-71
2023/11/01 00:11:33;;;;;;;3.20;2.00;;;;;;;15.84;54.54;93165.13;517523;28;1919;-71
2023/11/01 00:11:48;;;;;;;3.67;2.00;;;;;;;15.83;54.20;93161.59;517183;28;1082;-71
2023/11/01 00:12:04;;;;;;;2.53;2.13;;;;;;;15.83;54.82;93167.19;516609;28;1701;-71
2023/11/01 00:12:20;;;;;;;2.60;2.10;;;;;;;15.79;54.85;93161.31;517504;28;1033;-71
2023/11/01 00:12:35;;;;;;;3.60;2.20;;;;;;;15.84;55.12;93165.13;517478;28;847;-70
2023/11/01 00:12:50;;;;;;;3.78;2.15;;;;;;;15.85;55.00;93164.53;517421;28;1060;-70
2023/11/01 00:13:06;;;;;;;2.97;2.00;;;;;;;15.85;55.12;93170.09;517393;28;914;-70
2023/11/01 00:13:21;;;;;;;2.23;1.90;;;;;;;15.86;54.99;93163.22;517508;28;1289;-70
2023/11/01 00:13:37;;;;;;;2.80;2.13;;;;;;;15.85;55.05;93167.31;517419;28;884;-70
2023/11/01 00:13:52;;;;;;;3.07;2.37;;;;;;;15.85;55.06;93170.09;516969;28;812;-70
2023/11/01 00:14:07;;;;;;;2.57;2.10;;;;;;;15.79;54.98;93163.38;516309;28;957;-70
2023/11/01 00:14:23;;;;;;;2.22;1.92;;;;;;;15.83;54.79;93169.25;517457;28;946;-70
2023/11/01 00:14:38;;;;;;;2.30;2.00;;;;;;;15.83;54.71;93169.25;517136;28;1118;-70
2023/11/01 00:14:54;;;;;;;2.30;2.10;;;;;;;15.82;54.94;93168.50;515480;28;892;-70
2023/11/01 00:15:10;;;;;;;2.30;2.03;;;;;;;15.81;54.93;93172.59;517167;28;1070;-70
2023/11/01 00:15:25;;;;;;;2.33;1.92;;;;;;;15.81;54.84;93172.59;517618;28;2378;-70
2023/11/01 00:15:40;;;;;;;2.70;2.13;;;;;;;15.82;54.96;93178.91;517459;28;921;-70
2023/11/01 00:15:56;;;;;;;2.75;2.30;;;;;;;15.81;55.25;93178.16;517396;28;881;-70
2023/11/01 00:16:11;;;;;;;2.30;2.10;;;;;;;15.80;55.14;93187.13;517591;28;764;-70
2023/11/01 00:16:26;;;;;;;2.07;1.87;;;;;;;15.82;55.34;93184.47;517125;28;1733;-70
2023/11/01 00:16:43;;;;;;;2.17;1.98;;;;;;;15.81;55.26;93186.53;516895;28;900;-70
2023/11/01 00:16:58;;;;;;;2.38;2.17;;;;;;;15.82;55.30;93184.47;517618;28;867;-70
2023/11/01 00:17:13;;;;;;;4.03;2.30;;;;;;;15.82;55.20;93185.22;517869;28;793;-70
2023/11/01 00:17:29;;;;;;;4.22;2.30;;;;;;;15.82;55.14;93184.47;517356;28;868;-70
2023/11/01 00:17:44;;;;;;;2.63;2.17;;;;;;;15.83;55.32;93185.94;517409;28;849;-70
2023/11/01 00:18:00;;;;;;;2.50;2.20;;;;;;;15.83;55.37;93185.94;516402;28;1047;-70
2023/11/01 00:18:15;;;;;;;2.60;2.33;;;;;;;15.83;55.39;93183.16;517567;28;765;-70
2023/11/01 00:18:30;;;;;;;4.27;2.20;;;;;;;15.83;55.32;93181.09;517242;28;792;-70
2023/11/01 00:18:46;;;;;;;4.53;2.10;;;;;;;15.83;55.17;93174.81;517378;28;980;-70
2023/11/01 00:19:01;;;;;;;5.43;2.10;;;;;;;15.83;55.21;93178.31;517420;28;852;-70
2023/11/01 00:19:17;;;;;;;4.73;2.10;;;;;;;15.84;55.07;93173.47;517248;28;1721;-70
2023/11/01 00:19:32;;;;;;;3.10;2.30;;;;;;;15.83;55.27;93172.75;516790;28;984;-69
2023/11/01 00:19:48;;;;;;;3.37;2.30;;;;;;;15.72;55.20;93153.88;517408;28;859;-69
2023/11/01 00:20:04;;;;;;;3.35;2.13;;;;;;;15.84;55.33;93182.56;517300;28;868;-70
2023/11/01 00:20:20;;;;;;;4.03;2.55;;;;;;;15.83;55.29;93169.97;517602;28;824;-70
2023/11/01 00:20:35;;;;;;;2.88;2.55;;;;;;;15.83;55.31;93169.97;517257;28;793;-70
2023/11/01 00:20:51;;;;;;;2.43;2.23;;;;;;;15.83;55.21;93174.81;515252;28;916;-70
2023/11/01 00:21:06;;;;;;;2.67;2.10;;;;;;;15.81;55.29;93175.38;515126;28;1158;-70
2023/11/01 00:21:21;;;;;;;2.97;2.13;;;;;;;15.81;55.30;93167.03;515444;28;798;-69
2023/11/01 00:21:39;;;;;;;2.67;2.20;;;;;;;15.83;55.17;93169.25;515184;28;917;-70
2023/11/01 00:21:54;;;;;;;2.80;2.30;;;;;;;15.81;55.14;93169.81;515072;28;1619;-69
2023/11/01 00:22:09;;;;;;;4.15;2.60;;;;;;;15.81;55.26;93169.81;514982;28;793;-70
2023/11/01 00:22:25;;;;;;;4.30;2.60;;;;;;;15.82;55.26;93167.78;515426;28;837;-70
2023/11/01 00:22:40;;;;;;;4.03;2.63;;;;;;;15.82;54.93;93173.34;515639;28;911;-70
2023/11/01 00:22:55;;;;;;;4.15;2.85;;;;;;;15.80;55.34;93167.63;517264;28;805;-70
2023/11/01 00:23:11;;;;;;;6.50;2.77;;;;;;;15.81;55.41;93166.31;517586;28;772;-70
2023/11/01 00:23:26;;;;;;;7.53;2.75;;;;;;;15.81;55.50;93171.88;517563;28;765;-70
2023/11/01 00:23:42;;;;;;;8.33;3.13;;;;;;;15.81;55.48;93164.25;517397;28;1098;-70
2023/11/01 00:23:57;;;;;;;8.97;3.20;;;;;;;15.81;55.56;93169.81;517265;28;1048;-70
2023/11/01 00:24:13;;;;;;;4.57;2.67;;;;;;;15.81;55.31;93171.88;517350;28;1000;-70
2023/11/01 00:24:28;;;;;;;4.53;2.93;;;;;;;15.82;55.45;93176.13;517238;28;809;-70
2023/11/01 00:24:44;;;;;;;5.10;3.00;;;;;;;15.82;55.46;93173.34;517304;28;809;-70
2023/11/01 00:25:00;;;;;;;4.87;2.83;;;;;;;15.82;55.66;93173.34;517217;28;769;-70
2023/11/01 00:25:15;;;;;;;6.10;2.60;;;;;;;15.82;55.96;93165.00;517623;28;864;-70
2023/11/01 00:25:31;;;;;;;4.40;2.47;;;;;;;15.83;56.42;93174.81;517227;28;1050;-70
2023/11/01 00:25:46;;;;;;;3.57;2.77;;;;;;;15.82;56.43;93173.34;517108;28;1026;-70
2023/11/01 00:26:02;;;;;;;4.30;2.53;;;;;;;15.83;56.83;93172.75;516649;28;1030;-70
2023/11/01 00:26:17;;;;;;;3.90;2.40;;;;;;;15.83;57.07;93166.47;515509;28;785;-70
2023/11/01 00:26:33;;;;;;;2.83;2.50;;;;;;;15.82;57.26;93170.56;516371;28;1642;-69
2023/11/01 00:26:48;;;;;;;2.97;2.42;;;;;;;15.80;56.96;93162.06;517298;28;808;-69
2023/11/01 00:27:04;;;;;;;2.57;2.23;;;;;;;15.73;56.54;93152.56;517250;28;1567;-69
2023/11/01 00:27:19;;;;;;;2.95;2.45;;;;;;;15.79;56.80;93164.13;517417;28;808;-69
2023/11/01 00:27:34;;;;;;;3.50;2.70;;;;;;;15.78;57.06;93159.16;517221;28;768;-69
2023/11/01 00:27:50;;;;;;;2.92;2.60;;;;;;;15.79;57.23;93160.59;516730;28;1024;-70
2023/11/01 00:28:06;;;;;;;3.13;2.47;;;;;;;15.78;57.45;93159.16;517035;28;1075;-70
2023/11/01 00:28:21;;;;;;;3.03;2.28;;;;;;;15.76;57.44;93161.78;517595;28;773;-70
2023/11/01 00:28:37;;;;;;;3.23;2.20;;;;;;;15.74;57.06;93154.00;517367;28;852;-70
2023/11/01 00:28:52;;;;;;;3.63;2.53;;;;;;;15.74;57.25;93161.66;517335;28;781;-70
2023/11/01 00:29:07;;;;;;;3.43;2.67;;;;;;;15.73;57.34;93155.34;517548;28;781;-70
2023/11/01 00:29:23;;;;;;;3.50;2.60;;;;;;;15.53;57.21;93128.88;516263;28;1681;-70
2023/11/01 00:29:38;;;;;;;3.13;2.47;;;;;;;15.71;57.38;93152.41;515765;28;948;-70
2023/11/01 00:29:54;;;;;;;2.53;2.23;;;;;;;15.71;57.34;93157.97;515877;28;1166;-70
2023/11/01 00:30:10;;;;;;;2.55;2.25;;;;;;;15.71;57.44;93162.81;515561;28;837;-70
2023/11/01 00:30:26;;;;;;;3.50;2.63;;;;;;;15.71;57.58;93160.78;516265;28;990;-70
2023/11/01 00:30:41;;;;;;;3.45;2.75;;;;;;;15.65;57.64;93140.13;517279;28;1326;-70
2023/11/01 00:30:56;;;;;;;2.83;2.53;;;;;;;15.71;57.75;93151.69;516277;28;828;-70
2023/11/01 00:31:12;;;;;;;2.80;2.50;;;;;;;15.71;57.82;93151.69;515585;28;852;-69
2023/11/01 00:31:27;;;;;;;2.93;2.67;;;;;;;15.71;58.00;93151.69;515974;28;856;-70
2023/11/01 00:31:42;;;;;;;2.80;2.60;;;;;;;15.72;58.24;93147.59;516894;28;1922;-70
2023/11/01 00:31:58;;;;;;;3.90;2.40;;;;;;;15.69;58.20;93146.72;516185;28;1650;-69
2023/11/01 00:32:14;;;;;;;4.10;2.35;;;;;;;15.68;58.18;93144.53;516901;28;903;-70
2023/11/01 00:32:30;;;;;;;3.40;2.30;;;;;;;15.68;58.19;93144.53;517396;28;930;-69
2023/11/01 00:32:46;;;;;;;3.03;2.28;;;;;;;15.67;58.28;93146.56;517477;28;855;-70
2023/11/01 00:33:01;;;;;;;3.07;2.30;;;;;;;15.67;58.19;93152.13;517034;28;988;-70
2023/11/01 00:33:16;;;;;;;2.88;2.35;;;;;;;15.66;58.46;93150.66;517593;28;931;-70
2023/11/01 00:33:32;;;;;;;2.57;2.37;;;;;;;15.65;58.61;93143.66;517255;28;1313;-70
2023/11/01 00:33:47;;;;;;;3.43;2.40;;;;;;;15.65;58.71;93157.56;517356;28;833;-70
2023/11/01 00:34:02;;;;;;;4.55;2.45;;;;;;;15.65;58.89;93154.78;517513;28;1199;-69
2023/11/01 00:34:18;;;;;;;4.77;2.40;;;;;;;15.65;58.80;93159.59;517404;28;891;-70
2023/11/01 00:34:33;;;;;;;3.80;2.40;;;;;;;15.66;58.68;93161.06;517257;28;1066;-70
2023/11/01 00:34:49;;;;;;;2.42;2.17;;;;;;;15.65;59.25;93160.34;517331;28;825;-70
2023/11/01 00:35:05;;;;;;;2.70;2.23;;;;;;;15.64;59.35;93166.47;515911;28;1111;-70
2023/11/01 00:35:21;;;;;;;3.72;2.70;;;;;;;15.67;59.57;93159.75;516983;28;1082;-70
2023/11/01 00:35:36;;;;;;;3.90;2.80;;;;;;;15.67;59.90;93163.28;517377;28;860;-70
2023/11/01 00:35:52;;;;;;;2.60;2.40;;;;;;;15.46;59.95;93131.81;517450;28;938;-70
2023/11/01 00:36:08;;;;;;;2.70;2.33;;;;;;;15.68;60.25;93166.78;517428;28;1556;-70
2023/11/01 00:36:24;;;;;;;3.42;2.30;;;;;;;15.60;60.36;93155.81;517427;28;772;-70
2023/11/01 00:36:39;;;;;;;3.38;2.10;;;;;;;15.69;60.27;93168.25;517010;28;1756;-70
2023/11/01 00:36:54;;;;;;;3.30;2.37;;;;;;;15.69;60.45;93165.47;517133;28;884;-70
2023/11/01 00:37:10;;;;;;;3.35;2.88;;;;;;;15.69;60.49;93157.09;516802;28;1022;-70
2023/11/01 00:37:25;;;;;;;3.93;2.90;;;;;;;15.69;60.52;93162.69;517175;28;837;-70
2023/11/01 00:37:41;;;;;;;3.37;2.53;;;;;;;15.70;60.51;93164.16;517276;28;850;-70
2023/11/01 00:37:56;;;;;;;3.22;2.35;;;;;;;15.69;60.61;93157.84;517368;28;904;-70
2023/11/01 00:38:11;;;;;;;3.17;2.50;;;;;;;15.70;60.57;93158.59;517531;28;914;-70
2023/11/01 00:38:27;;;;;;;2.87;2.43;;;;;;;15.71;60.61;93151.69;517216;28;1075;-70
2023/11/01 00:38:42;;;;;;;3.08;2.30;;;;;;;15.70;60.46;93150.25;517412;28;753;-70
2023/11/01 00:38:57;;;;;;;2.83;2.40;;;;;;;15.67;60.29;93145.84;516248;28;995;-70
2023/11/01 00:39:13;;;;;;;2.50;2.30;;;;;;;15.71;60.32;93155.19;515395;28;1304;-70
2023/11/01 00:39:28;;;;;;;2.95;2.28;;;;;;;15.72;60.27;93153.16;516550;28;1674;-70
2023/11/01 00:39:44;;;;;;;3.03;2.63;;;;;;;15.70;60.14;93153.72;517380;28;1023;-70
2023/11/01 00:39:59;;;;;;;2.75;2.50;;;;;;;15.72;60.20;93153.88;516120;28;1227;-70
2023/11/01 00:40:15;;;;;;;3.90;2.30;;;;;;;15.71;60.03;93149.63;515209;28;833;-70
2023/11/01 00:40:31;;;;;;;3.05;1.95;;;;;;;15.73;60.14;93160.16;516941;28;876;-70
2023/11/01 00:40:46;;;;;;;2.65;2.00;;;;;;;15.73;60.04;93158.13;517122;28;1438;-70
2023/11/01 00:41:03;;;;;;;3.60;2.53;;;;;;;15.74;59.94;93162.34;516429;28;1653;-70
2023/11/01 00:41:18;;;;;;;2.92;2.63;;;;;;;15.72;59.92;93159.44;517555;28;915;-70
2023/11/01 00:41:34;;;;;;;3.03;2.30;;;;;;;15.73;59.95;93166.47;517322;28;1489;-70
2023/11/01 00:41:49;;;;;;;3.25;2.10;;;;;;;15.73;59.72;93162.97;516441;28;1527;-70
2023/11/01 00:42:05;;;;;;;5.13;2.30;;;;;;;15.73;59.83;93162.97;516618;28;1488;-70
2023/11/01 00:42:20;;;;;;;4.87;2.33;;;;;;;15.74;59.92;93165.16;517153;28;1326;-70
2023/11/01 00:42:38;;;;;;;2.35;2.15;;;;;;;15.74;60.07;93167.22;517354;28;829;-70
2023/11/01 00:42:54;;;;;;;3.88;2.65;;;;;;;15.73;60.24;93163.69;517447;28;1008;-70
2023/11/01 00:43:09;;;;;;;5.47;2.90;;;;;;;15.73;60.13;93168.53;516796;28;1506;-70
2023/11/01 00:43:25;;;;;;;3.85;2.50;;;;;;;15.72;60.11;93165.00;517489;28;1054;-70
2023/11/01 00:43:41;;;;;;;2.43;2.23;;;;;;;15.71;60.24;93166.34;517359;28;808;-70
2023/11/01 00:43:56;;;;;;;2.53;2.22;;;;;;;15.73;60.24;93171.31;517339;28;920;-70
2023/11/01 00:44:12;;;;;;;2.40;2.20;;;;;;;15.72;60.34;93175.44;517352;28;796;-70
2023/11/01 00:44:27;;;;;;;2.60;2.30;;;;;;;15.71;60.28;93173.94;517257;28;856;-70
2023/11/01 00:44:42;;;;;;;3.03;2.30;;;;;;;15.71;60.34;93176.72;517297;28;923;-70
2023/11/01 00:44:58;;;;;;;3.45;1.95;;;;;;;15.70;60.46;93170.44;517209;28;1002;-70
2023/11/01 00:45:14;;;;;;;4.37;2.10;;;;;;;15.65;60.32;93160.34;517540;28;753;-70
2023/11/01 00:45:29;;;;;;;3.95;2.30;;;;;;;15.63;60.39;93165.78;517281;28;910;-69
2023/11/01 00:45:45;;;;;;;3.65;2.30;;;;;;;15.69;60.42;93182.16;517311;28;776;-71
2023/11/01 00:46:00;;;;;;;2.63;2.07;;;;;;;15.61;60.34;93170.47;517245;28;829;-70
2023/11/01 00:46:15;;;;;;;2.33;1.97;;;;;;;15.67;60.17;93179.97;517466;28;757;-70
2023/11/01 00:46:31;;;;;;;3.95;1.92;;;;;;;15.67;60.19;93174.41;516798;28;1575;-69
2023/11/01 00:46:46;;;;;;;3.27;1.90;;;;;;;15.66;60.00;93194.47;517253;28;916;-70
2023/11/01 00:47:02;;;;;;;2.07;1.90;;;;;;;15.64;60.06;93180.41;517171;28;890;-70
2023/11/01 00:47:17;;;;;;;2.25;2.00;;;;;;;15.64;59.85;93191.53;517637;28;758;-70
2023/11/01 00:47:32;;;;;;;2.43;2.13;;;;;;;15.64;59.91;93192.28;517214;28;959;-70
2023/11/01 00:47:48;;;;;;;2.42;2.22;;;;;;;15.62;60.07;93192.13;517268;28;840;-70
2023/11/01 00:48:04;;;;;;;2.50;2.30;;;;;;;15.62;59.90;93194.19;517298;28;979;-70
2023/11/01 00:48:20;;;;;;;2.35;2.13;;;;;;;15.60;59.93;93189.19;517475;28;1090;-70
2023/11/01 00:48:35;;;;;;;2.15;1.95;;;;;;;15.62;60.19;93196.97;517246;28;847;-70
2023/11/01 00:48:50;;;;;;;2.27;2.07;;;;;;;15.61;60.23;93195.50;517552;28;800;-70
2023/11/01 00:49:06;;;;;;;2.33;2.13;;;;;;;15.61;60.23;93190.69;517395;28;867;-70
2023/11/01 00:49:21;;;;;;;2.33;2.13;;;;;;;15.61;60.44;93193.47;517263;28;1772;-70
2023/11/01 00:49:37;;;;;;;3.17;2.20;;;;;;;15.60;60.53;93191.97;517369;28;820;-70
2023/11/01 00:49:52;;;;;;;3.60;2.25;;;;;;;15.61;60.51;93199.03;516830;28;936;-70
2023/11/01 00:50:08;;;;;;;3.50;2.50;;;;;;;15.62;60.46;93189.34;515655;28;793;-70
2023/11/01 00:50:23;;;;;;;5.03;2.53;;;;;;;15.62;60.69;93196.97;515819;28;1068;-69
2023/11/01 00:50:39;;;;;;;5.10;2.30;;;;;;;15.61;60.72;93201.06;515408;28;772;-70
2023/11/01 00:50:54;;;;;;;3.60;2.30;;;;;;;15.56;60.63;93182.63;515714;28;1080;-70
2023/11/01 00:51:09;;;;;;;2.50;2.20;;;;;;;15.60;60.57;93191.97;517336;28;831;-70
2023/11/01 00:51:25;;;;;;;2.33;2.00;;;;;;;15.56;60.52;93191.69;517132;28;753;-70
2023/11/01 00:51:40;;;;;;;2.97;2.10;;;;;;;15.59;60.50;93195.38;517257;28;1985;-70
2023/11/01 00:51:56;;;;;;;3.70;2.40;;;;;;;15.58;60.49;93199.47;516431;28;814;-70
2023/11/01 00:52:11;;;;;;;3.23;2.37;;;;;;;15.58;60.51;93194.63;517241;28;1919;-70
2023/11/01 00:52:26;;;;;;;2.92;2.20;;;;;;;15.56;60.70;93197.28;517447;28;996;-70
2023/11/01 00:52:42;;;;;;;2.63;2.10;;;;;;;15.56;60.78;93194.47;517374;28;886;-70
2023/11/01 00:52:57;;;;;;;2.35;2.15;;;;;;;15.55;60.90;93197.88;517490;28;816;-70
2023/11/01 00:53:13;;;;;;;2.70;2.43;;;;;;;15.52;61.19;93196.97;517654;28;1029;-69
2023/11/01 00:53:28;;;;;;;3.33;2.63;;;;;;;15.50;61.18;93193.31;517447;28;879;-70
2023/11/01 00:53:44;;;;;;;3.87;2.70;;;;;;;15.48;61.25;93193.19;517647;28;877;-70
2023/11/01 00:53:59;;;;;;;3.07;2.50;;;;;;;15.48;61.30;93190.41;517586;28;1031;-70
2023/11/01 00:54:15;;;;;;;3.45;2.63;;;;;;;15.49;61.25;93200.94;517419;28;803;-69
2023/11/01 00:54:30;;;;;;;4.00;2.77;;;;;;;15.49;61.13;93191.84;517402;28;788;-70
2023/11/01 00:54:46;;;;;;;3.05;2.55;;;;;;;15.48;61.26;93198.75;517443;28;995;-70
2023/11/01 00:55:01;;;;;;;3.57;2.97;;;;;;;15.48;61.14;93202.25;515878;28;848;-70
2023/11/01 00:55:17;;;;;;;4.13;2.95;;;;;;;15.47;61.25;93200.78;515479;28;1079;-70
2023/11/01 00:55:32;;;;;;;3.10;2.47;;;;;;;15.47;61.30;93206.34;516913;28;1146;-70
2023/11/01 00:55:48;;;;;;;3.13;2.53;;;;;;;15.45;61.49;93197.13;517570;28;922;-70
2023/11/01 00:56:04;;;;;;;3.93;2.60;;;;;;;15.47;61.33;93200.03;515615;28;797;-70
2023/11/01 00:56:19;;;;;;;3.63;2.60;;;;;;;15.48;61.37;93207.09;515699;28;1027;-70
2023/11/01 00:56:34;;;;;;;3.30;2.57;;;;;;;15.40;61.48;93196.06;517293;28;1594;-70
2023/11/01 00:56:50;;;;;;;3.88;2.60;;;;;;;15.47;61.63;93208.41;517322;28;792;-70
2023/11/01 00:57:05;;;;;;;3.60;2.70;;;;;;;15.48;61.69;93207.09;517528;28;1185;-70
2023/11/01 00:57:20;;;;;;;3.20;2.63;;;;;;;15.48;61.50;93212.66;517559;28;888;-70
2023/11/01 00:57:36;;;;;;;2.67;2.42;;;;;;;15.48;61.55;93210.59;517399;28;773;-70
2023/11/01 00:57:51;;;;;;;2.50;2.30;;;;;;;15.49;61.69;93202.97;517471;28;812;-70
2023/11/01 00:58:07;;;;;;;3.10;2.63;;;;;;;15.49;61.56;93202.97;515693;28;1114;-70
2023/11/01 00:58:22;;;;;;;3.70;2.92;;;;;;;15.49;61.65;93203.72;515457;28;1179;-70
2023/11/01 00:58:38;;;;;;;4.17;2.80;;;;;;;15.49;61.56;93205.75;517455;28;843;-69
2023/11/01 00:58:53;;;;;;;4.00;2.63;;;;;;;15.50;61.66;93210.75;517744;28;900;-70
2023/11/01 00:59:09;;;;;;;3.63;2.70;;;;;;;15.50;61.67;93210.00;517518;28;768;-70
2023/11/01 00:59:24;;;;;;;4.15;3.08;;;;;;;15.49;61.88;93211.31;516695;28;1686;-70
2023/11/01 00:59:39;;;;;;;3.77;2.87;;;;;;;15.50;61.86;93212.78;516945;28;1081;-70
2023/11/01 00:59:55;;;;;;;3.70;2.60;;;;;;;15.50;62.07;93201.66;517523;28;1440;-70
2023/11/01 01:00:11;;;;;;;4.00;2.65;;;;;;;15.51;61.99;93197.56;517349;28;820;-70
2023/11/01 01:00:26;;;;;;;4.53;2.78;;;;;;;15.50;62.02;93198.88;517323;28;898;-69
2023/11/01 01:00:42;;;;;;;4.60;2.73;;;;;;;15.51;61.97;93200.34;517429;28;862;-69
2023/11/01 01:00:57;;;;;;;4.38;2.80;;;;;;;15.51;62.17;93203.84;517577;28;761;-69
2023/11/01 01:01:12;;;;;;;3.97;3.00;;;;;;;15.54;62.31;93204.72;515502;28;1133;-69
2023/11/01 01:01:28;;;;;;;3.13;2.80;;;;;;;15.50;62.48;93199.63;516394;28;1186;-69
2023/11/01 01:01:44;;;;;;;2.97;2.60;;;;;;;15.54;62.48;93201.94;517383;28;872;-69
2023/11/01 01:01:59;;;;;;;3.60;2.57;;;;;;;15.54;62.58;93205.47;517292;28;1622;-69
2023/11/01 01:02:15;;;;;;;3.65;2.50;;;;;;;15.55;62.67;93197.88;514675;28;880;-69
2023/11/01 01:02:30;;;;;;;3.05;2.65;;;;;;;15.56;62.75;93204.88;515231;28;841;-69
2023/11/01 01:02:46;;;;;;;2.83;2.50;;;;;;;15.54;62.91;93199.16;513315;28;915;-69
2023/11/01 01:03:02;;;;;;;2.63;2.43;;;;;;;15.55;63.09;93204.13;515129;28;959;-69
2023/11/01 01:03:17;;;;;;;3.10;2.75;;;;;;;15.55;63.12;93201.34;515348;28;898;-69
2023/11/01 01:03:33;;;;;;;3.75;3.03;;;;;;;15.58;63.11;93207.81;515318;28;829;-69
2023/11/01 01:03:48;;;;;;;5.93;2.97;;;;;;;15.59;63.29;93203.72;515332;28;879;-69
2023/11/01 01:04:04;;;;;;;5.25;2.55;;;;;;;15.58;63.41;93205.75;514387;28;1201;-69
2023/11/01 01:04:19;;;;;;;2.80;2.50;;;;;;;15.59;63.57;93201.63;517279;28;934;-69
2023/11/01 01:04:35;;;;;;;2.63;2.40;;;;;;;15.60;63.67;93199.59;517829;28;1098;-69
2023/11/01 01:04:50;;;;;;;3.00;2.27;;;;;;;15.58;63.75;93191.09;517435;28;903;-69
2023/11/01 01:05:06;;;;;;;3.27;2.30;;;;;;;15.59;63.71;93198.16;515492;28;801;-69
2023/11/01 01:05:23;;;;;;;3.50;2.50;;;;;;;15.38;63.65;93159.75;515484;28;975;-69
2023/11/01 01:05:38;;;;;;;3.67;2.53;;;;;;;15.60;63.55;93196.81;517352;28;1138;-69
2023/11/01 01:05:54;;;;;;;5.00;2.35;;;;;;;15.61;63.67;93192.72;516909;28;830;-69
2023/11/01 01:06:09;;;;;;;6.00;2.40;;;;;;;15.60;63.68;93191.25;516659;28;1705;-69
2023/11/01 01:06:25;;;;;;;4.03;2.27;;;;;;;15.61;63.59;93195.50;517326;28;768;-69
2023/11/01 01:06:40;;;;;;;2.45;1.90;;;;;;;15.61;63.56;93189.94;517210;28;815;-69
2023/11/01 01:06:56;;;;;;;3.00;1.77;;;;;;;15.62;63.50;93196.97;517714;28;768;-69
2023/11/01 01:07:12;;;;;;;4.53;2.15;;;;;;;15.61;63.53;93192.72;517358;28;1102;-69
2023/11/01 01:07:27;;;;;;;3.63;2.53;;;;;;;15.61;63.61;93187.16;517409;28;860;-69
2023/11/01 01:07:43;;;;;;;4.13;2.67;;;;;;;15.62;63.44;93188.59;517218;28;1131;-69
2023/11/01 01:07:58;;;;;;;3.65;2.47;;;;;;;15.62;63.57;93200.47;516052;28;1058;-69
2023/11/01 01:08:13;;;;;;;2.43;2.17;;;;;;;15.63;63.67;93190.81;516335;28;1018;-69
2023/11/01 01:08:29;;;;;;;2.25;1.85;;;;;;;15.62;63.64;93200.47;517282;28;805;-69
2023/11/01 01:08:44;;;;;;;2.30;1.90;;;;;;;15.63;63.80;93201.22;517489;28;1252;-69
2023/11/01 01:09:00;;;;;;;2.70;2.07;;;;;;;15.62;63.84;93200.47;516090;28;789;-69
2023/11/01 01:09:15;;;;;;;3.17;2.40;;;;;;;15.61;63.73;93201.81;515385;28;1058;-69
2023/11/01 01:09:31;;;;;;;3.27;2.63;;;;;;;15.61;63.76;93204.59;516665;28;1721;-69
2023/11/01 01:09:46;;;;;;;4.20;2.47;;;;;;;15.61;63.92;93206.63;517386;28;909;-69
2023/11/01 01:10:03;;;;;;;3.23;2.37;;;;;;;15.56;64.25;93202.09;517368;28;980;-69
2023/11/01 01:10:19;;;;;;;3.28;2.53;;;;;;;15.61;64.04;93215.72;515484;28;874;-69
2023/11/01 01:10:34;;;;;;;5.07;2.63;;;;;;;15.62;64.17;93211.59;517048;28;820;-69
2023/11/01 01:10:49;;;;;;;4.13;2.53;;;;;;;15.62;64.13;93213.66;517379;28;773;-70
2023/11/01 01:11:05;;;;;;;2.83;2.40;;;;;;;15.62;64.23;93210.88;517743;28;820;-69
2023/11/01 01:11:21;;;;;;;2.92;2.38;;;;;;;15.62;64.36;93214.41;517425;28;1074;-69
2023/11/01 01:11:37;;;;;;;3.15;2.75;;;;;;;15.48;64.47;93201.53;516961;28;2375;-69
2023/11/01 01:11:52;;;;;;;3.37;2.93;;;;;;;15.63;64.49;93223.47;516978;28;832;-69
2023/11/01 01:12:08;;;;;;;3.90;3.00;;;;;;;15.62;64.48;93222.75;516406;28;1784;-69
2023/11/01 01:12:24;;;;;;;3.95;3.10;;;;;;;15.61;64.41;93215.72;517278;28;911;-69
2023/11/01 01:12:39;;;;;;;3.33;3.00;;;;;;;15.59;64.18;93221.13;517405;28;843;-69
2023/11/01 01:12:55;;;;;;;3.20;2.90;;;;;;;15.56;64.04;93225.09;517522;28;855;-69
2023/11/01 01:13:10;;;;;;;4.60;3.10;;;;;;;15.53;64.07;93223.47;516748;28;1065;-69
2023/11/01 01:13:25;;;;;;;4.88;3.28;;;;;;;15.52;63.84;93216.47;517396;28;992;-69
2023/11/01 01:13:41;;;;;;;3.67;3.10;;;;;;;15.52;63.67;93224.81;515123;28;2721;-69
2023/11/01 01:13:56;;;;;;;3.70;2.93;;;;;;;15.53;63.59;93226.25;515487;28;1016;-69
2023/11/01 01:14:12;;;;;;;3.60;2.80;;;;;;;15.53;63.58;93219.94;515347;28;765;-69
2023/11/01 01:14:27;;;;;;;4.17;2.87;;;;;;;15.53;63.67;93228.31;515219;28;896;-69
2023/11/01 01:14:42;;;;;;;4.53;3.17;;;;;;;15.54;63.68;93227.72;514986;28;1193;-69
2023/11/01 01:14:58;;;;;;;4.32;3.15;;;;;;;15.36;63.63;93198.56;514536;28;957;-69
2023/11/01 01:15:13;;;;;;;4.67;3.10;;;;;;;15.54;63.62;93227.72;515380;28;773;-69
2023/11/01 01:15:29;;;;;;;4.53;3.38;;;;;;;15.54;63.36;93224.22;515577;28;825;-69